createdAt,value
2018-03-19T00:00:52.162Z,4.50
2018-03-19T00:03:21.526Z,4.43
2018-03-19T00:05:51.505Z,4.63
2018-03-19T00:08:21.729Z,3.87
2018-03-19T00:10:51.128Z,4.20
2018-03-19T00:13:20.320Z,4.73
2018-03-19T00:15:49.566Z,4.53
2018-03-19T00:18:18.801Z,5.00
2018-03-19T00:20:48.001Z,5.53
2018-03-19T00:23:17.259Z,5.07
2018-03-19T00:25:46.459Z,5.00
2018-03-19T00:28:15.701Z,4.67
2018-03-19T00:30:45.000Z,4.80
2018-03-19T00:33:14.223Z,4.43
2018-03-19T00:35:43.462Z,4.30
2018-03-19T00:38:12.758Z,5.13
2018-03-19T00:40:41.971Z,4.97
2018-03-19T00:43:11.177Z,4.60
2018-03-19T00:45:40.410Z,5.27
2018-03-19T00:48:09.593Z,4.23
2018-03-19T00:50:38.794Z,4.60
2018-03-19T00:53:07.996Z,4.80
2018-03-19T00:55:37.198Z,4.77
2018-03-19T00:58:07.168Z,4.67
2018-03-19T01:00:36.399Z,4.30
2018-03-19T01:03:05.634Z,4.70
2018-03-19T01:05:34.995Z,4.90
2018-03-19T01:08:04.231Z,4.33
2018-03-19T01:10:34.199Z,4.60
2018-03-19T01:13:03.416Z,5.00
2018-03-19T01:15:32.688Z,4.60
2018-03-19T01:18:01.888Z,4.50
2018-03-19T01:20:31.125Z,4.80
2018-03-19T01:23:00.506Z,4.50
2018-03-19T01:25:29.768Z,5.17
2018-03-19T01:27:59.143Z,5.30
2018-03-19T01:30:29.139Z,5.37
2018-03-19T01:32:59.136Z,4.40
2018-03-19T01:35:28.382Z,5.30
2018-03-19T01:37:57.653Z,5.10
2018-03-19T01:40:27.838Z,6.63
2018-03-19T01:42:57.040Z,5.80
2018-03-19T01:45:26.481Z,5.50
2018-03-19T01:47:55.703Z,4.60
2018-03-19T01:50:24.975Z,6.20
2018-03-19T01:52:54.983Z,4.20
2018-03-19T01:55:24.987Z,6.10
2018-03-19T01:57:54.255Z,4.50
2018-03-19T02:00:23.450Z,5.30
2018-03-19T02:02:53.617Z,4.67
2018-03-19T02:05:22.839Z,5.20
2018-03-19T02:07:52.063Z,5.23
2018-03-19T02:10:21.306Z,5.80
2018-03-19T02:12:50.639Z,6.53
2018-03-19T02:15:19.898Z,5.40
2018-03-19T02:17:49.142Z,5.47
2018-03-19T02:20:19.099Z,5.50
2018-03-19T02:22:48.398Z,5.60
2018-03-19T02:25:17.595Z,5.30
2018-03-19T02:27:47.108Z,5.63
2018-03-19T02:30:16.338Z,6.50
2018-03-19T02:32:46.535Z,4.87
2018-03-19T02:35:15.790Z,5.50
2018-03-19T02:37:45.027Z,5.53
2018-03-19T02:40:16.626Z,4.90
2018-03-19T02:42:45.935Z,5.10
2018-03-19T02:45:15.280Z,5.73
2018-03-19T02:47:44.608Z,4.73
2018-03-19T02:50:14.666Z,5.87
2018-03-19T02:52:43.881Z,5.23
2018-03-19T02:55:13.146Z,4.90
2018-03-19T02:57:42.400Z,4.67
2018-03-19T03:00:11.642Z,6.13
2018-03-19T03:02:40.894Z,5.67
2018-03-19T03:05:10.591Z,5.70
2018-03-19T03:07:39.823Z,5.80
2018-03-19T03:10:09.836Z,5.70
2018-03-19T03:12:39.804Z,5.80
2018-03-19T03:15:09.027Z,5.50
2018-03-19T03:17:39.031Z,5.47
2018-03-19T03:20:08.268Z,5.10
2018-03-19T03:22:38.272Z,6.17
2018-03-19T03:25:07.541Z,5.90
2018-03-19T03:27:37.427Z,5.50
2018-03-19T03:30:06.679Z,6.30
2018-03-19T03:32:36.758Z,5.80
2018-03-19T03:35:06.001Z,5.40
2018-03-19T03:37:35.438Z,5.90
2018-03-19T03:40:04.706Z,6.00
2018-03-19T03:42:34.708Z,4.90
2018-03-19T03:45:03.945Z,6.03
2018-03-19T03:47:33.214Z,5.27
2018-03-19T03:50:02.462Z,5.47
2018-03-19T03:52:31.915Z,6.30
2018-03-19T03:55:01.147Z,6.70
2018-03-19T03:57:30.463Z,5.90
2018-03-19T03:59:59.678Z,5.20
2018-03-19T04:02:29.083Z,6.50
2018-03-19T04:04:58.319Z,5.07
2018-03-19T04:07:28.329Z,5.13
2018-03-19T04:09:58.326Z,6.60
2018-03-19T04:12:27.627Z,5.00
2018-03-19T04:14:56.863Z,6.10
2018-03-19T04:17:26.067Z,5.83
2018-03-19T04:19:55.303Z,6.30
2018-03-19T04:22:24.519Z,5.40
2018-03-19T04:24:53.795Z,6.13
2018-03-19T04:27:23.079Z,5.93
2018-03-19T04:29:52.334Z,6.37
2018-03-19T04:32:22.317Z,5.37
2018-03-19T04:34:51.606Z,5.67
2018-03-19T04:37:21.706Z,5.50
2018-03-19T04:39:50.911Z,5.10
2018-03-19T04:42:20.106Z,6.17
2018-03-19T04:44:49.472Z,5.90
2018-03-19T04:47:19.517Z,8.60
2018-03-19T04:49:48.783Z,6.10
2018-03-19T04:52:18.746Z,5.03
2018-03-19T04:54:48.714Z,5.43
2018-03-19T04:57:17.937Z,5.17
2018-03-19T04:59:47.174Z,5.77
2018-03-19T05:02:16.546Z,6.80
2018-03-19T05:04:45.780Z,6.07
2018-03-19T05:07:15.063Z,6.20
2018-03-19T05:09:44.277Z,6.10
2018-03-19T05:12:13.640Z,5.60
2018-03-19T05:14:42.942Z,5.40
2018-03-19T05:17:12.929Z,6.30
2018-03-19T05:19:42.899Z,5.53
2018-03-19T05:22:12.117Z,5.43
2018-03-19T05:24:41.413Z,5.47
2018-03-19T05:27:10.637Z,6.00
2018-03-19T05:29:39.896Z,6.80
2018-03-19T05:32:09.146Z,6.33
2018-03-19T05:34:38.355Z,6.23
2018-03-19T05:37:07.786Z,5.40
2018-03-19T05:39:37.035Z,6.50
2018-03-19T05:42:07.022Z,5.87
2018-03-19T05:44:36.237Z,5.97
2018-03-19T05:47:05.587Z,5.10
2018-03-19T05:49:34.827Z,4.73
2018-03-19T05:52:04.889Z,5.53
2018-03-19T05:54:34.151Z,6.20
2018-03-19T05:57:04.154Z,5.27
2018-03-19T05:59:33.393Z,4.57
2018-03-19T06:02:02.655Z,5.77
2018-03-19T06:04:32.074Z,6.40
2018-03-19T06:07:01.296Z,5.40
2018-03-19T06:09:30.525Z,5.60
2018-03-19T06:11:59.763Z,5.30
2018-03-19T06:14:29.757Z,5.60
2018-03-19T06:16:59.034Z,5.97
2018-03-19T06:19:28.364Z,5.77
2018-03-19T06:21:57.618Z,6.53
2018-03-19T06:24:26.863Z,5.63
2018-03-19T06:26:56.099Z,5.27
2018-03-19T06:29:25.309Z,5.70
2018-03-19T06:31:54.520Z,6.03
2018-03-19T06:34:23.789Z,6.20
2018-03-19T06:36:53.002Z,6.90
2018-03-19T06:39:22.256Z,5.90
2018-03-19T06:41:51.447Z,6.20
2018-03-19T06:44:21.509Z,5.40
2018-03-19T06:46:50.767Z,6.40
2018-03-19T06:49:20.884Z,5.40
2018-03-19T06:51:50.191Z,5.93
2018-03-19T06:54:20.186Z,5.50
2018-03-19T06:56:49.425Z,5.50
2018-03-19T06:59:18.666Z,5.53
2018-03-19T07:01:48.030Z,5.93
2018-03-19T07:04:17.251Z,5.63
2018-03-19T07:06:46.498Z,5.77
2018-03-19T07:09:16.464Z,5.00
2018-03-19T07:11:46.005Z,5.23
2018-03-19T07:14:15.285Z,6.97
2018-03-19T07:16:44.497Z,6.50
2018-03-19T07:19:13.745Z,6.30
2018-03-19T07:21:43.836Z,6.53
2018-03-19T07:24:13.938Z,6.30
2018-03-19T07:26:43.162Z,6.87
2018-03-19T07:29:12.406Z,6.70
2018-03-19T07:31:41.637Z,7.60
2018-03-19T07:34:10.860Z,5.83
2018-03-19T07:36:40.826Z,8.00
2018-03-19T07:39:10.842Z,6.60
2018-03-19T07:41:40.083Z,8.10
2018-03-19T07:44:10.079Z,7.97
2018-03-19T07:46:39.292Z,7.00
2018-03-19T07:49:09.293Z,7.00
2018-03-19T07:51:39.289Z,8.10
2018-03-19T07:54:08.823Z,6.60
2018-03-19T07:56:38.802Z,6.40
2018-03-19T07:59:08.158Z,7.30
2018-03-19T08:01:38.195Z,6.67
2018-03-19T08:04:07.424Z,8.27
2018-03-19T08:06:36.678Z,7.30
2018-03-19T08:09:05.879Z,6.30
2018-03-19T08:11:35.137Z,6.97
2018-03-19T08:14:04.369Z,6.13
2018-03-19T08:16:33.580Z,6.90
2018-03-19T08:19:02.833Z,6.90
2018-03-19T08:21:32.911Z,6.83
2018-03-19T08:24:02.199Z,6.83
2018-03-19T08:26:31.394Z,6.87
2018-03-19T08:29:00.623Z,6.67
2018-03-19T08:31:29.842Z,6.57
2018-03-19T08:33:59.931Z,5.90
2018-03-19T08:36:29.399Z,6.93
2018-03-19T08:38:58.655Z,6.60
2018-03-19T08:41:27.940Z,6.10
2018-03-19T08:43:57.142Z,6.63
2018-03-19T08:46:26.375Z,6.33
2018-03-19T08:48:56.343Z,6.00
2018-03-19T08:51:25.599Z,6.73
2018-03-19T08:53:55.055Z,6.50
2018-03-19T08:56:24.307Z,7.00
2018-03-19T08:58:53.517Z,6.60
2018-03-19T09:01:22.750Z,6.90
2018-03-19T09:03:51.970Z,7.10
2018-03-19T09:06:22.021Z,7.70
2018-03-19T09:08:51.948Z,6.07
2018-03-19T09:11:21.159Z,7.40
2018-03-19T09:13:50.384Z,6.50
2018-03-19T09:16:19.624Z,6.60
2018-03-19T09:18:48.827Z,6.77
2018-03-19T09:21:18.099Z,6.90
2018-03-19T09:23:48.228Z,6.60
2018-03-19T09:26:17.659Z,7.20
2018-03-19T09:28:47.642Z,7.27
2018-03-19T09:31:17.756Z,6.97
2018-03-19T09:33:47.743Z,5.33
2018-03-19T09:36:16.930Z,6.60
2018-03-19T09:38:47.033Z,7.30
2018-03-19T09:41:16.288Z,7.10
2018-03-19T09:43:45.508Z,6.70
2018-03-19T09:46:14.719Z,7.33
2018-03-19T09:48:44.205Z,5.60
2018-03-19T09:51:19.874Z,6.53
2018-03-19T09:53:49.114Z,6.30
2018-03-19T09:56:18.372Z,7.70
2018-03-19T09:58:47.777Z,6.20
2018-03-19T10:01:16.977Z,6.67
2018-03-19T10:03:46.403Z,6.43
2018-03-19T10:06:16.040Z,6.53
2018-03-19T10:08:46.051Z,6.80
2018-03-19T10:11:16.035Z,7.23
2018-03-19T10:13:45.263Z,5.93
2018-03-19T10:16:15.243Z,5.63
2018-03-19T10:18:44.501Z,5.67
2018-03-19T10:21:13.947Z,6.70
2018-03-19T10:23:43.215Z,6.47
2018-03-19T10:26:12.446Z,5.70
2018-03-19T10:28:41.648Z,6.03
2018-03-19T10:31:11.069Z,6.57
2018-03-19T10:33:41.106Z,7.07
2018-03-19T10:36:10.332Z,6.30
2018-03-19T10:38:39.603Z,5.77
2018-03-19T10:41:08.789Z,6.37
2018-03-19T10:43:38.783Z,5.37
2018-03-19T10:46:08.077Z,5.37
2018-03-19T10:48:37.310Z,5.20
2018-03-19T10:51:06.536Z,5.47
2018-03-19T10:53:35.986Z,5.63
2018-03-19T10:56:05.210Z,6.03
2018-03-19T10:58:34.422Z,6.20
2018-03-19T11:01:09.123Z,4.90
2018-03-19T11:03:39.705Z,5.43
2018-03-19T11:06:14.347Z,5.63
2018-03-19T11:08:50.470Z,5.60
2018-03-19T11:11:19.742Z,5.30
2018-03-19T11:13:49.930Z,5.73
2018-03-19T11:16:19.214Z,4.63
2018-03-19T11:18:48.491Z,4.50
2018-03-19T11:21:18.875Z,4.30
2018-03-19T11:23:48.861Z,5.13
2018-03-19T11:26:18.063Z,4.90
2018-03-19T11:28:47.277Z,5.53
2018-03-19T11:31:16.484Z,5.00
2018-03-19T11:33:46.509Z,5.17
2018-03-19T11:36:15.723Z,5.00
2018-03-19T11:38:45.686Z,4.90
2018-03-19T11:41:15.941Z,4.93
2018-03-19T11:43:45.159Z,5.00
2018-03-19T11:46:14.383Z,5.10
2018-03-19T11:48:43.602Z,5.70
2018-03-19T11:51:12.819Z,5.37
2018-03-19T11:53:42.364Z,4.80
2018-03-19T11:56:11.666Z,4.60
2018-03-19T11:58:40.911Z,5.30
2018-03-19T12:01:10.437Z,4.60
2018-03-19T12:03:40.440Z,4.40
2018-03-19T12:06:09.653Z,4.43
2018-03-19T12:08:39.615Z,6.00
2018-03-19T12:11:08.999Z,4.70
2018-03-19T12:13:38.204Z,5.53
2018-03-19T12:16:07.570Z,5.20
2018-03-19T12:18:37.574Z,5.10
2018-03-19T12:21:07.536Z,5.07
2018-03-19T12:23:36.775Z,4.37
2018-03-19T12:26:06.029Z,4.20
2018-03-19T12:28:35.227Z,4.70
2018-03-19T12:31:04.498Z,5.33
2018-03-19T12:33:34.481Z,4.30
2018-03-19T12:36:03.951Z,4.97
2018-03-19T12:38:33.155Z,4.53
2018-03-19T12:41:02.387Z,4.20
2018-03-19T12:43:31.602Z,4.63
2018-03-19T12:46:01.619Z,4.07
2018-03-19T12:48:30.896Z,4.50
2018-03-19T12:51:00.154Z,5.03
2018-03-19T12:53:29.333Z,5.00
2018-03-19T12:55:58.584Z,4.63
2018-03-19T12:58:27.890Z,4.70
2018-03-19T13:00:57.157Z,5.37
2018-03-19T13:03:26.388Z,4.47
2018-03-19T13:05:55.731Z,4.73
2018-03-19T13:08:24.983Z,4.83
2018-03-19T13:10:54.178Z,4.17
2018-03-19T13:13:23.684Z,5.20
2018-03-19T13:15:52.892Z,4.80
2018-03-19T13:18:22.097Z,4.97
2018-03-19T13:20:52.070Z,4.63
2018-03-19T13:23:21.381Z,4.90
2018-03-19T13:25:50.602Z,4.97
2018-03-19T13:28:20.586Z,4.00
2018-03-19T13:30:49.818Z,4.07
2018-03-19T13:33:19.006Z,4.77
2018-03-19T13:35:48.222Z,4.50
2018-03-19T13:38:18.250Z,5.23
2018-03-19T13:40:48.215Z,5.37
2018-03-19T13:43:17.435Z,5.00
2018-03-19T13:45:46.730Z,4.30
2018-03-19T13:48:16.547Z,5.30
2018-03-19T13:50:45.747Z,4.60
2018-03-19T13:53:14.992Z,4.90
2018-03-19T13:55:44.226Z,4.90
2018-03-19T13:58:13.778Z,4.60
2018-03-19T14:00:43.739Z,4.47
2018-03-19T14:03:13.012Z,4.37
2018-03-19T14:05:42.295Z,4.93
2018-03-19T14:08:12.266Z,5.67
2018-03-19T14:10:41.484Z,5.53
2018-03-19T14:13:10.683Z,5.40
2018-03-19T14:15:40.662Z,6.00
2018-03-19T14:18:09.874Z,5.60
2018-03-19T14:20:39.082Z,5.80
2018-03-19T14:23:08.289Z,5.50
2018-03-19T14:25:37.486Z,5.80
2018-03-19T14:28:07.472Z,7.03
2018-03-19T14:30:36.678Z,6.00
2018-03-19T14:33:06.911Z,4.83
2018-03-19T14:35:36.930Z,5.90
2018-03-19T14:38:06.404Z,6.40
2018-03-19T14:40:35.639Z,6.07
2018-03-19T14:43:05.705Z,5.43
2018-03-19T14:45:34.902Z,5.30
2018-03-19T14:48:04.246Z,6.27
2018-03-19T14:50:33.605Z,6.77
2018-03-19T14:53:02.782Z,5.30
2018-03-19T14:55:32.746Z,6.80
2018-03-19T14:58:03.899Z,6.47
2018-03-19T15:00:33.151Z,6.40
2018-03-19T15:03:02.451Z,4.83
2018-03-19T15:05:31.687Z,6.10
2018-03-19T15:08:00.934Z,5.67
2018-03-19T15:10:30.830Z,5.63
2018-03-19T15:13:01.338Z,5.57
2018-03-19T15:15:31.378Z,5.30
2018-03-19T15:18:00.597Z,5.50
2018-03-19T15:20:29.866Z,6.53
2018-03-19T15:22:59.107Z,5.67
2018-03-19T15:25:28.399Z,5.90
2018-03-19T15:27:57.581Z,5.50
2018-03-19T15:30:26.789Z,5.73
2018-03-19T15:32:55.948Z,5.47
2018-03-19T15:35:26.000Z,6.30
2018-03-19T15:37:55.153Z,5.30
2018-03-19T15:40:24.558Z,5.40
2018-03-19T15:42:53.763Z,6.30
2018-03-19T15:45:23.827Z,5.87
2018-03-19T15:47:53.056Z,5.80
2018-03-19T15:50:22.298Z,6.30
2018-03-19T15:52:51.546Z,6.10
2018-03-19T15:55:20.743Z,6.50
2018-03-19T15:57:50.035Z,5.37
2018-03-19T16:00:19.370Z,6.77
2018-03-19T16:02:49.394Z,6.53
2018-03-19T16:05:19.367Z,6.90
2018-03-19T16:07:48.607Z,5.20
2018-03-19T16:10:18.595Z,5.50
2018-03-19T16:12:47.815Z,4.73
2018-03-19T16:15:17.815Z,5.87
2018-03-19T16:17:47.034Z,4.90
2018-03-19T16:20:17.022Z,5.30
2018-03-19T16:22:46.273Z,4.93
2018-03-19T16:25:15.475Z,5.47
2018-03-19T16:27:44.713Z,5.67
2018-03-19T16:30:13.919Z,5.50
2018-03-19T16:32:44.664Z,5.77
2018-03-19T16:35:15.453Z,5.70
2018-03-19T16:37:44.671Z,4.70
2018-03-19T16:40:13.974Z,5.50
2018-03-19T16:42:43.226Z,5.20
2018-03-19T16:45:12.433Z,4.47
2018-03-19T16:47:42.358Z,4.70
2018-03-19T16:50:11.549Z,4.20
2018-03-19T16:52:40.763Z,4.50
2018-03-19T16:55:09.986Z,5.00
2018-03-19T16:57:40.044Z,4.77
2018-03-19T17:00:09.216Z,5.37
2018-03-19T17:02:39.511Z,4.67
2018-03-19T17:05:08.772Z,5.20
2018-03-19T17:07:38.005Z,4.60
2018-03-19T17:10:07.235Z,4.43
2018-03-19T17:12:37.216Z,4.57
2018-03-19T17:15:06.562Z,4.93
2018-03-19T17:17:36.522Z,4.33
2018-03-19T17:20:05.806Z,5.00
2018-03-19T17:22:35.035Z,5.13
2018-03-19T17:25:04.432Z,4.63
2018-03-19T17:27:33.663Z,4.50
2018-03-19T17:30:03.704Z,5.03
2018-03-19T17:32:33.085Z,6.23
2018-03-19T17:35:03.179Z,7.80
2018-03-19T17:37:32.421Z,6.10
2018-03-19T17:40:01.639Z,6.40
2018-03-19T17:42:30.978Z,8.10
2018-03-19T17:45:00.186Z,11.50
2018-03-19T17:47:30.181Z,6.70
2018-03-19T17:49:59.437Z,6.57
2018-03-19T17:52:28.661Z,5.77
2018-03-19T17:54:57.930Z,8.80
2018-03-19T17:57:27.187Z,7.07
2018-03-19T17:59:56.432Z,4.23
2018-03-19T18:02:25.624Z,4.93
2018-03-19T18:04:55.722Z,5.30
2018-03-19T18:07:25.009Z,6.10
2018-03-19T18:09:54.198Z,4.87
2018-03-19T18:12:23.623Z,4.60
2018-03-19T18:14:52.842Z,6.23
2018-03-19T18:17:22.055Z,5.43
2018-03-19T18:19:51.291Z,5.20
2018-03-19T18:22:20.490Z,14.40
2018-03-19T18:24:50.625Z,13.73
2018-03-19T18:27:19.834Z,5.20
2018-03-19T18:29:49.085Z,5.73
2018-03-19T18:32:18.415Z,5.77
2018-03-19T18:34:47.640Z,5.37
2018-03-19T18:37:16.831Z,4.47
2018-03-19T18:39:46.130Z,8.70
2018-03-19T18:42:15.330Z,6.30
2018-03-19T18:44:44.566Z,4.83
2018-03-19T18:47:13.774Z,4.70
2018-03-19T18:49:42.983Z,4.70
2018-03-19T18:52:12.180Z,4.13
2018-03-19T18:54:41.433Z,5.10
2018-03-19T18:57:10.632Z,4.00
2018-03-19T18:59:39.986Z,6.57
2018-03-19T19:02:09.199Z,4.50
2018-03-19T19:04:39.228Z,4.33
2018-03-19T19:07:08.524Z,4.97
2018-03-19T19:09:38.570Z,4.27
2018-03-19T19:12:07.811Z,4.73
2018-03-19T19:14:37.819Z,5.00
2018-03-19T19:17:07.146Z,5.10
2018-03-19T19:19:37.122Z,5.00
2018-03-19T19:22:06.649Z,4.47
2018-03-19T19:24:35.976Z,5.13
2018-03-19T19:27:05.217Z,4.23
2018-03-19T19:29:34.466Z,4.60
2018-03-19T19:32:03.699Z,4.70
2018-03-19T19:34:32.925Z,5.30
2018-03-19T19:37:02.162Z,5.23
2018-03-19T19:39:32.206Z,5.00
2018-03-19T19:42:01.466Z,5.30
2018-03-19T19:44:31.497Z,5.80
2018-03-19T19:47:01.913Z,5.33
2018-03-19T19:49:31.887Z,6.30
2018-03-19T19:52:02.363Z,6.30
2018-03-19T19:54:35.313Z,5.43
2018-03-19T19:57:04.672Z,6.37
2018-03-19T19:59:33.887Z,6.53
2018-03-19T20:02:03.091Z,8.70
2018-03-19T20:04:32.333Z,8.00
2018-03-19T20:07:02.327Z,10.20
2018-03-19T20:09:32.548Z,12.53
2018-03-19T20:12:01.766Z,11.00
2018-03-19T20:14:31.791Z,10.23
2018-03-19T20:17:01.129Z,8.17
2018-03-19T20:19:30.335Z,7.70
2018-03-19T20:21:59.548Z,7.90
2018-03-19T20:24:28.827Z,9.07
2018-03-19T20:26:58.059Z,8.40
2018-03-19T20:29:27.315Z,9.87
2018-03-19T20:31:56.545Z,7.90
2018-03-19T20:34:25.804Z,8.70
2018-03-19T20:36:55.976Z,7.97
2018-03-19T20:39:25.234Z,8.03
2018-03-19T20:41:54.464Z,7.40
2018-03-19T20:44:25.303Z,9.50
2018-03-19T20:46:54.803Z,7.77
2018-03-19T20:49:24.074Z,7.83
2018-03-19T20:51:53.356Z,6.73
2018-03-19T20:54:22.649Z,6.13
2018-03-19T20:56:51.850Z,7.93
2018-03-19T20:59:21.039Z,6.17
2018-03-19T21:01:50.277Z,6.43
2018-03-19T21:04:19.510Z,6.30
2018-03-19T21:06:49.531Z,6.53
2018-03-19T21:09:20.140Z,6.60
2018-03-19T21:11:49.394Z,5.60
2018-03-19T21:14:18.631Z,7.27
2018-03-19T21:16:47.891Z,5.73
2018-03-19T21:19:17.112Z,5.73
2018-03-19T21:21:46.344Z,6.40
2018-03-19T21:24:16.323Z,6.70
2018-03-19T21:26:45.599Z,6.27
2018-03-19T21:29:14.807Z,6.33
2018-03-19T21:31:44.076Z,6.80
2018-03-19T21:34:13.451Z,6.70
2018-03-19T21:36:43.479Z,6.17
2018-03-19T21:39:13.490Z,6.60
2018-03-19T21:41:43.533Z,6.60
2018-03-19T21:44:13.523Z,6.80
2018-03-19T21:46:43.527Z,7.40
2018-03-19T21:49:12.984Z,5.87
2018-03-19T21:51:42.274Z,6.67
2018-03-19T21:54:12.267Z,7.37
2018-03-19T21:56:41.510Z,7.23
2018-03-19T21:59:10.792Z,7.27
2018-03-19T22:01:40.043Z,8.17
2018-03-19T22:04:09.308Z,8.10
2018-03-19T22:06:38.541Z,8.33
2018-03-19T22:09:07.800Z,7.60
2018-03-19T22:11:36.990Z,8.70
2018-03-19T22:14:06.226Z,6.57
2018-03-19T22:16:35.451Z,8.70
2018-03-19T22:19:05.482Z,7.30
2018-03-19T22:21:34.727Z,7.23
2018-03-19T22:24:03.956Z,7.60
2018-03-19T22:26:33.259Z,8.53
2018-03-19T22:29:03.261Z,8.63
2018-03-19T22:31:32.597Z,8.93
2018-03-19T22:34:01.810Z,9.23
2018-03-19T22:36:31.068Z,9.90
2018-03-19T22:39:00.279Z,10.10
2018-03-19T22:41:29.588Z,11.83
2018-03-19T22:43:58.806Z,9.40
2018-03-19T22:46:28.110Z,9.23
2018-03-19T22:48:57.337Z,8.90
2018-03-19T22:51:27.696Z,10.30
2018-03-19T22:53:56.971Z,9.73
2018-03-19T22:56:26.327Z,8.80
2018-03-19T22:58:55.575Z,8.57
2018-03-19T23:01:24.823Z,8.50
2018-03-19T23:03:54.112Z,9.87
2018-03-19T23:06:23.357Z,10.73
2018-03-19T23:08:52.601Z,8.97
2018-03-19T23:11:22.748Z,8.20
2018-03-19T23:13:51.978Z,8.80
2018-03-19T23:16:21.202Z,8.67
2018-03-19T23:18:51.210Z,8.93
2018-03-19T23:21:21.209Z,8.77
2018-03-19T23:23:50.443Z,8.70
2018-03-19T23:26:20.035Z,8.00
2018-03-19T23:28:49.312Z,9.33
2018-03-19T23:31:19.334Z,7.90
2018-03-19T23:33:48.574Z,10.00
2018-03-19T23:36:17.842Z,8.47
2018-03-19T23:38:47.895Z,9.20
2018-03-19T23:41:17.138Z,9.87
2018-03-19T23:43:46.397Z,10.13
2018-03-19T23:46:15.668Z,9.63
2018-03-19T23:48:44.945Z,8.53
2018-03-19T23:51:14.162Z,7.97
2018-03-19T23:53:44.296Z,8.77
2018-03-19T23:56:13.558Z,8.50
2018-03-19T23:58:42.812Z,9.10
